Time;durP1;ratioP1;P1;durP2;ratioP2;P2;SDS_P1;SDS_P2;PMS_P1;PMS_P2;Temp;Humidity;BMP_temperature;BMP_pressure;BME280_temperature;BME280_humidity;BME280_pressure;Samples;Min_cycle;Max_cycle;Signal;HPM_P1;HPM_P2
2022/09/14 00:00:27;;;;;;;18.00;10.10;;;18.30;99.90;;;;;;5057126;28;20037;-65
2022/09/14 00:02:53;;;;;;;24.17;10.68;;;18.30;99.90;;;;;;5046017;28;20037;-66
2022/09/14 00:05:19;;;;;;;22.15;12.25;;;18.30;99.90;;;;;;5058202;28;20025;-65
2022/09/14 00:07:44;;;;;;;24.08;11.30;;;18.30;99.90;;;;;;5056590;28;20032;-65
2022/09/14 00:10:10;;;;;;;27.63;12.35;;;18.30;99.90;;;;;;5055032;28;20107;-66
2022/09/14 00:12:35;;;;;;;28.00;14.07;;;18.20;99.90;;;;;;5047231;28;20029;-66
2022/09/14 00:15:01;;;;;;;24.60;14.18;;;18.20;99.90;;;;;;5057892;28;20028;-66
2022/09/14 00:17:27;;;;;;;28.63;15.10;;;18.20;99.90;;;;;;5052390;28;20702;-64
2022/09/14 00:19:52;;;;;;;44.03;18.48;;;18.20;99.90;;;;;;5053591;28;20067;-66
2022/09/14 00:22:18;;;;;;;42.63;21.38;;;18.20;99.90;;;;;;5048998;28;20082;-66
2022/09/14 00:24:44;;;;;;;57.83;22.85;;;18.20;99.90;;;;;;5050185;28;20041;-65
2022/09/14 00:27:10;;;;;;;59.28;23.95;;;18.10;99.90;;;;;;5050156;28;20522;-66
2022/09/14 00:29:36;;;;;;;58.80;23.30;;;18.10;99.90;;;;;;5054045;28;20782;-65
2022/09/14 00:32:02;;;;;;;53.17;21.95;;;18.10;99.90;;;;;;5046446;28;20031;-65
2022/09/14 00:34:28;;;;;;;50.55;21.13;;;18.10;99.90;;;;;;5052069;28;20029;-66
2022/09/14 00:36:54;;;;;;;48.58;21.90;;;18.20;99.90;;;;;;5049734;28;20444;-66
2022/09/14 00:39:27;;;;;;;52.63;21.17;;;18.20;99.90;;;;;;5056376;28;20508;-66
2022/09/14 00:41:53;;;;;;;55.60;23.92;;;18.20;99.90;;;;;;5048495;28;20102;-66
2022/09/14 00:44:18;;;;;;;47.95;20.90;;;18.10;99.90;;;;;;5049680;28;20032;-66
2022/09/14 00:46:47;;;;;;;45.60;19.73;;;18.10;99.90;;;;;;5053172;28;20028;-66
2022/09/14 00:49:17;;;;;;;47.20;22.02;;;18.20;99.90;;;;;;5046323;28;20025;-66
2022/09/14 00:51:56;;;;;;;52.13;22.65;;;18.20;99.90;;;;;;5048396;28;20052;-66
2022/09/14 00:54:22;;;;;;;45.72;20.05;;;18.10;99.90;;;;;;5048023;28;20129;-66
2022/09/14 00:56:48;;;;;;;47.08;19.60;;;18.10;99.90;;;;;;5053768;28;20202;-66
2022/09/14 00:59:21;;;;;;;49.35;21.02;;;18.20;99.90;;;;;;5048809;28;20070;-65
2022/09/14 01:01:47;;;;;;;43.40;19.92;;;18.10;99.90;;;;;;5049709;28;20151;-65
2022/09/14 01:04:13;;;;;;;43.92;21.10;;;18.10;99.90;;;;;;5049001;28;20554;-65
2022/09/14 01:06:48;;;;;;;50.42;21.73;;;18.20;99.90;;;;;;5053955;28;20030;-65
2022/09/14 01:09:28;;;;;;;64.68;22.90;;;18.10;99.90;;;;;;5049666;28;20016;-65
2022/09/14 01:12:09;;;;;;;57.58;22.73;;;18.10;99.90;;;;;;5052037;28;20029;-65
2022/09/14 01:14:47;;;;;;;47.42;22.02;;;18.10;99.90;;;;;;5048245;28;20029;-66
2022/09/14 01:17:49;;;;;;;54.63;23.05;;;18.10;99.90;;;;;;5046817;28;20045;-65
2022/09/14 01:20:25;;;;;;;49.70;21.60;;;18.10;99.90;;;;;;5045631;28;20102;-66
2022/09/14 01:23:02;;;;;;;64.18;24.38;;;18.10;99.90;;;;;;5047036;28;20063;-66
2022/09/14 01:25:58;;;;;;;53.90;22.42;;;18.10;99.90;;;;;;5046718;28;20033;-65
2022/09/14 01:28:39;;;;;;;56.25;21.95;;;18.10;99.90;;;;;;5048974;28;20390;-66
2022/09/14 01:31:12;;;;;;;48.35;21.52;;;18.10;99.90;;;;;;5051906;28;20460;-66
2022/09/14 01:33:45;;;;;;;58.40;24.25;;;18.10;99.90;;;;;;5047842;28;20021;-66
2022/09/14 01:36:13;;;;;;;51.30;22.85;;;18.10;99.90;;;;;;5053080;28;20108;-67
2022/09/14 01:38:50;;;;;;;44.72;20.55;;;18.10;99.90;;;;;;5045134;28;20029;-65
2022/09/14 01:41:19;;;;;;;58.88;21.25;;;18.20;99.90;;;;;;5047406;28;20048;-66
2022/09/14 01:44:07;;;;;;;56.72;23.67;;;18.20;99.90;;;;;;5049014;28;20552;-65
2022/09/14 01:46:40;;;;;;;65.28;24.30;;;18.10;99.90;;;;;;5056775;28;20119;-66
2022/09/14 01:49:18;;;;;;;53.72;21.90;;;18.10;99.90;;;;;;5047422;28;20029;-63
2022/09/14 01:51:47;;;;;;;63.05;23.13;;;18.10;99.90;;;;;;5047930;28;20032;-64
2022/09/14 01:54:27;;;;;;;66.13;24.75;;;18.20;99.90;;;;;;5042062;28;20402;-64
2022/09/14 01:57:03;;;;;;;60.53;22.90;;;18.20;99.90;;;;;;5044108;28;20499;-65
2022/09/14 01:59:40;;;;;;;58.83;24.55;;;18.10;99.90;;;;;;5048818;28;20166;-65
2022/09/14 02:02:16;;;;;;;61.95;23.77;;;18.10;99.90;;;;;;5049511;28;20104;-65
2022/09/14 02:04:46;;;;;;;78.82;27.38;;;18.20;99.90;;;;;;5050998;28;20029;-65
2022/09/14 02:07:12;;;;;;;62.13;24.10;;;18.20;99.90;;;;;;5048513;28;20461;-65
2022/09/14 02:09:38;;;;;;;72.22;25.48;;;18.20;99.90;;;;;;5054667;28;20392;-65
2022/09/14 02:12:04;;;;;;;76.60;27.42;;;18.10;99.90;;;;;;5055907;28;20027;-67
2022/09/14 02:14:30;;;;;;;79.78;26.95;;;18.10;99.90;;;;;;5048219;28;20041;-67
2022/09/14 02:16:56;;;;;;;74.97;25.58;;;18.10;99.90;;;;;;5048722;28;20052;-67
2022/09/14 02:19:24;;;;;;;83.30;27.52;;;18.10;99.90;;;;;;5055099;28;20108;-67
2022/09/14 02:21:50;;;;;;;82.75;27.23;;;18.10;99.90;;;;;;5055351;28;20028;-67
2022/09/14 02:24:16;;;;;;;57.63;22.50;;;18.10;99.90;;;;;;5050660;28;20399;-66
2022/09/14 02:26:41;;;;;;;88.80;28.00;;;18.10;99.90;;;;;;5061817;28;20071;-67
2022/09/14 02:29:07;;;;;;;81.68;28.63;;;18.10;99.90;;;;;;5053407;28;20021;-66
2022/09/14 02:31:51;;;;;;;91.10;30.63;;;18.10;99.90;;;;;;5060408;28;20045;-66
2022/09/14 02:34:32;;;;;;;81.50;28.60;;;18.10;99.90;;;;;;5047945;28;20028;-67
2022/09/14 02:37:12;;;;;;;99.95;29.50;;;18.20;99.90;;;;;;5049441;28;20033;-66
2022/09/14 02:39:57;;;;;;;99.45;31.40;;;18.20;99.90;;;;;;5052798;28;20112;-66
2022/09/14 02:42:38;;;;;;;61.03;24.92;;;18.10;99.90;;;;;;5052580;28;20084;-66
2022/09/14 02:45:15;;;;;;;92.53;30.90;;;18.20;99.90;;;;;;5044852;28;20119;-67
2022/09/14 02:48:15;;;;;;;91.45;31.40;;;18.20;99.90;;;;;;5052331;28;20025;-67
2022/09/14 02:51:14;;;;;;;97.18;32.25;;;18.20;99.90;;;;;;5047137;28;20061;-66
2022/09/14 02:53:46;;;;;;;109.38;33.13;;;18.20;99.90;;;;;;5042262;28;20399;-66
2022/09/14 02:56:13;;;;;;;97.15;32.60;;;18.20;99.90;;;;;;5051980;28;20032;-67
2022/09/14 02:58:42;;;;;;;92.35;31.63;;;18.20;99.90;;;;;;5050531;28;20040;-67
2022/09/14 03:01:13;;;;;;;73.15;29.02;;;18.20;99.90;;;;;;5050535;28;20029;-67
2022/09/14 03:03:39;;;;;;;101.85;33.92;;;18.20;99.90;;;;;;5050330;28;20025;-66
2022/09/14 03:06:04;;;;;;;103.70;35.40;;;18.20;99.90;;;;;;5054234;28;20039;-66
2022/09/14 03:08:31;;;;;;;96.45;33.72;;;18.20;99.90;;;;;;5051099;28;20025;-66
2022/09/14 03:10:57;;;;;;;104.13;34.58;;;18.20;99.90;;;;;;5053025;28;20086;-66
2022/09/14 03:13:23;;;;;;;112.65;34.78;;;18.20;99.90;;;;;;5052146;28;20455;-67
2022/09/14 03:15:49;;;;;;;95.53;32.53;;;18.10;99.90;;;;;;5050090;28;20060;-66
2022/09/14 03:18:15;;;;;;;99.70;33.90;;;18.10;99.90;;;;;;5050866;28;20372;-66
2022/09/14 03:20:41;;;;;;;74.63;29.70;;;18.10;99.90;;;;;;5048438;28;20036;-67
2022/09/14 03:23:08;;;;;;;79.45;30.35;;;18.20;99.90;;;;;;5052183;28;20593;-66
2022/09/14 03:25:42;;;;;;;92.53;30.92;;;18.20;99.90;;;;;;5054771;28;20036;-66
2022/09/14 03:28:08;;;;;;;;;;;18.20;99.90;;;;;;5051122;28;20025;-66
2022/09/14 03:30:34;;;;;;;91.32;30.77;;;18.20;99.90;;;;;;5053871;28;19916;-66
2022/09/14 03:33:00;;;;;;;89.65;31.30;;;18.20;99.90;;;;;;5049800;28;20017;-66
2022/09/14 03:35:30;;;;;;;98.10;33.55;;;18.20;99.90;;;;;;5053661;28;20022;-66
2022/09/14 03:37:55;;;;;;;98.05;32.00;;;18.20;99.90;;;;;;5048091;28;20044;-66
2022/09/14 03:40:21;;;;;;;97.25;31.63;;;18.20;99.90;;;;;;5055206;28;20021;-66
2022/09/14 03:42:48;;;;;;;90.47;30.92;;;18.20;99.90;;;;;;5050159;28;20048;-66
2022/09/14 03:45:15;;;;;;;99.30;31.73;;;18.10;99.90;;;;;;5049161;28;20064;-67
2022/09/14 03:47:42;;;;;;;97.10;32.70;;;18.20;99.90;;;;;;5051563;28;20491;-66
2022/09/14 03:50:09;;;;;;;91.90;32.38;;;18.10;99.90;;;;;;5049623;28;20029;-66
2022/09/14 03:52:36;;;;;;;92.95;31.92;;;18.20;99.90;;;;;;5059141;28;20021;-67
2022/09/14 03:55:03;;;;;;;99.18;32.88;;;18.20;99.90;;;;;;5056150;28;20151;-65
2022/09/14 03:57:28;;;;;;;92.40;31.60;;;18.20;99.90;;;;;;5051288;28;20043;-65
2022/09/14 03:59:54;;;;;;;96.03;31.60;;;18.10;99.90;;;;;;5050097;28;20028;-64
2022/09/14 04:02:19;;;;;;;102.68;33.30;;;18.10;99.90;;;;;;5049664;28;20079;-64
2022/09/14 04:04:47;;;;;;;82.95;29.67;;;18.10;99.90;;;;;;5052293;28;20155;-67
2022/09/14 04:07:13;;;;;;;74.15;27.02;;;18.20;99.90;;;;;;5047283;28;20025;-66
2022/09/14 04:09:39;;;;;;;96.78;31.10;;;18.20;99.90;;;;;;5051838;28;20098;-67
2022/09/14 04:12:05;;;;;;;95.15;33.05;;;18.20;99.90;;;;;;5049996;28;20087;-67
2022/09/14 04:14:30;;;;;;;114.30;33.70;;;18.20;99.90;;;;;;5050359;28;21114;-67
2022/09/14 04:16:56;;;;;;;118.18;35.05;;;18.20;99.90;;;;;;5040295;28;20029;-67
2022/09/14 04:19:21;;;;;;;106.78;33.00;;;18.10;99.90;;;;;;5047579;28;20052;-67
2022/09/14 04:21:47;;;;;;;104.18;33.88;;;18.20;99.90;;;;;;5052783;28;20028;-67
2022/09/14 04:24:13;;;;;;;107.95;32.33;;;18.10;99.90;;;;;;5050269;28;20441;-67
2022/09/14 04:26:39;;;;;;;118.65;34.80;;;18.10;99.90;;;;;;5049767;28;20039;-67
2022/09/14 04:29:05;;;;;;;121.53;34.92;;;18.20;99.90;;;;;;5053819;28;20021;-67
2022/09/14 04:31:31;;;;;;;114.72;34.83;;;18.10;99.90;;;;;;5047920;28;20053;-67
2022/09/14 04:33:57;;;;;;;130.77;35.58;;;18.10;99.90;;;;;;5050916;28;20100;-67
2022/09/14 04:36:27;;;;;;;134.80;36.08;;;18.10;99.90;;;;;;5049707;28;20120;-67
2022/09/14 04:38:54;;;;;;;117.97;34.55;;;18.10;99.90;;;;;;5053177;28;20441;-67
2022/09/14 04:41:20;;;;;;;121.93;35.20;;;18.10;99.90;;;;;;5052097;28;20079;-67
2022/09/14 04:43:49;;;;;;;108.47;34.38;;;18.10;99.90;;;;;;5051928;28;20067;-66
2022/09/14 04:46:17;;;;;;;81.07;30.55;;;18.10;99.90;;;;;;5049295;28;20029;-67
2022/09/14 04:48:43;;;;;;;96.97;31.95;;;18.20;99.90;;;;;;5052868;28;20037;-66
2022/09/14 04:51:16;;;;;;;88.22;31.83;;;18.20;99.90;;;;;;5051528;28;20111;-67
2022/09/14 04:53:43;;;;;;;117.35;35.50;;;18.20;99.90;;;;;;5049211;28;20075;-67
2022/09/14 04:56:10;;;;;;;93.05;31.95;;;18.20;99.90;;;;;;5051062;28;20059;-67
2022/09/14 04:58:40;;;;;;;83.70;28.60;;;18.20;99.90;;;;;;5049473;28;20017;-68
2022/09/14 05:01:16;;;;;;;110.38;34.40;;;18.20;99.90;;;;;;5041008;28;20048;-66
2022/09/14 05:03:42;;;;;;;119.78;34.05;;;18.20;99.90;;;;;;5043149;28;20029;-66
2022/09/14 05:06:13;;;;;;;95.13;32.80;;;18.20;99.90;;;;;;5048571;28;20450;-67
2022/09/14 05:08:41;;;;;;;109.05;33.15;;;18.20;99.90;;;;;;5052041;28;20044;-67
2022/09/14 05:11:07;;;;;;;108.93;32.22;;;18.20;99.90;;;;;;5043629;28;20066;-67
2022/09/14 05:13:34;;;;;;;83.18;28.27;;;18.20;99.90;;;;;;5050398;28;20031;-66
2022/09/14 05:16:09;;;;;;;108.07;30.05;;;18.20;99.90;;;;;;5047611;28;20040;-67
2022/09/14 05:18:35;;;;;;;82.25;27.13;;;18.20;99.90;;;;;;5060435;28;20701;-67
2022/09/14 05:21:03;;;;;;;141.63;32.55;;;18.20;99.90;;;;;;5048333;28;20028;-67
2022/09/14 05:23:28;;;;;;;143.18;34.38;;;18.20;99.90;;;;;;5042938;28;20083;-67
2022/09/14 05:25:54;;;;;;;109.47;32.85;;;18.20;99.90;;;;;;5042646;28;20028;-67
2022/09/14 05:28:19;;;;;;;104.90;33.95;;;18.20;99.90;;;;;;5052085;28;20035;-67
2022/09/14 05:30:45;;;;;;;107.20;34.70;;;18.20;99.90;;;;;;5048387;28;20100;-67
2022/09/14 05:33:10;;;;;;;91.03;30.02;;;18.10;99.90;;;;;;5052352;28;20069;-66
2022/09/14 05:35:36;;;;;;;68.68;27.25;;;18.10;99.90;;;;;;5052846;28;20032;-68
2022/09/14 05:38:01;;;;;;;52.30;20.13;;;18.00;99.90;;;;;;5063980;28;20031;-67
2022/09/14 05:40:27;;;;;;;58.10;20.08;;;18.00;99.90;;;;;;5048635;28;20084;-66
2022/09/14 05:42:52;;;;;;;55.58;19.85;;;18.00;99.90;;;;;;5065723;28;20467;-66
2022/09/14 05:45:18;;;;;;;52.75;18.48;;;18.00;99.90;;;;;;5066831;28;20032;-66
2022/09/14 05:47:43;;;;;;;46.05;17.40;;;17.90;99.90;;;;;;5064543;28;20021;-67
2022/09/14 05:50:09;;;;;;;46.35;18.10;;;18.00;99.90;;;;;;5067175;28;20394;-67
2022/09/14 05:52:34;;;;;;;40.30;16.50;;;17.90;99.90;;;;;;5056993;28;20025;-66
2022/09/14 05:55:00;;;;;;;41.00;17.38;;;17.90;99.90;;;;;;5061371;28;20032;-66
2022/09/14 05:57:26;;;;;;;38.53;16.05;;;17.80;99.90;;;;;;5057476;28;20033;-66
2022/09/14 05:59:51;;;;;;;36.58;14.45;;;17.80;99.90;;;;;;5060821;28;20033;-65
2022/09/14 06:02:17;;;;;;;40.30;15.02;;;17.80;99.90;;;;;;5052101;28;20051;-65
2022/09/14 06:04:42;;;;;;;44.15;16.33;;;17.80;99.90;;;;;;5052561;28;20037;-65
2022/09/14 06:07:08;;;;;;;42.72;16.73;;;17.80;99.90;;;;;;5053408;28;20403;-65
2022/09/14 06:09:33;;;;;;;45.97;18.90;;;17.80;99.90;;;;;;5071961;28;20036;-66
2022/09/14 06:11:59;;;;;;;50.97;17.85;;;17.80;99.90;;;;;;5070823;28;20021;-66
2022/09/14 06:14:24;;;;;;;47.58;18.45;;;17.80;99.90;;;;;;5057204;28;20025;-65
2022/09/14 06:16:50;;;;;;;48.05;17.13;;;17.80;99.90;;;;;;5051130;28;20029;-65
2022/09/14 06:19:15;;;;;;;36.50;15.35;;;17.80;99.90;;;;;;5051382;28;20120;-65
2022/09/14 06:21:42;;;;;;;32.28;13.20;;;17.80;99.90;;;;;;5050914;28;20033;-65
2022/09/14 06:24:09;;;;;;;31.52;13.65;;;17.70;99.90;;;;;;5069703;28;20028;-67
2022/09/14 06:26:35;;;;;;;28.48;12.27;;;17.60;99.90;;;;;;5069723;28;20012;-66
2022/09/14 06:29:00;;;;;;;19.80;9.85;;;17.60;99.90;;;;;;5070430;28;20436;-66
2022/09/14 06:31:26;;;;;;;18.52;9.07;;;17.50;99.90;;;;;;5070526;28;20077;-66
2022/09/14 06:33:52;;;;;;;16.35;8.52;;;17.40;99.90;;;;;;5071288;28;20025;-66
2022/09/14 06:36:19;;;;;;;14.57;8.30;;;17.40;99.90;;;;;;5060674;28;20024;-66
2022/09/14 06:38:48;;;;;;;17.27;8.88;;;17.30;99.90;;;;;;5067412;28;20069;-65
2022/09/14 06:41:19;;;;;;;14.35;7.55;;;17.30;99.90;;;;;;5070799;28;20029;-65
2022/09/14 06:43:45;;;;;;;15.27;8.27;;;17.30;99.90;;;;;;5070859;28;20028;-66
2022/09/14 06:46:19;;;;;;;14.23;8.27;;;17.20;99.90;;;;;;5069120;28;20102;-66
2022/09/14 06:48:48;;;;;;;14.80;8.20;;;17.20;99.90;;;;;;5071383;28;20032;-65
2022/09/14 06:51:15;;;;;;;11.38;7.75;;;17.20;99.90;;;;;;5060016;28;20044;-65
2022/09/14 06:53:42;;;;;;;14.38;8.02;;;17.10;99.90;;;;;;5071008;28;20025;-65
2022/09/14 06:56:07;;;;;;;15.88;8.50;;;17.10;99.90;;;;;;5064200;28;20027;-65
2022/09/14 06:58:33;;;;;;;12.15;8.13;;;17.10;99.90;;;;;;5060310;28;20029;-65
2022/09/14 07:01:04;;;;;;;12.02;7.07;;;17.10;99.90;;;;;;5070816;28;20029;-65
2022/09/14 07:03:30;;;;;;;12.90;7.75;;;17.10;99.90;;;;;;5065694;28;20040;-65
2022/09/14 07:06:08;;;;;;;15.80;6.82;;;17.10;99.90;;;;;;5068356;28;20029;-65
2022/09/14 07:08:34;;;;;;;10.68;7.00;;;17.00;99.90;;;;;;5073752;28;20024;-66
2022/09/14 07:11:00;;;;;;;11.07;6.28;;;17.00;99.90;;;;;;5073764;28;20074;-65
2022/09/14 07:13:30;;;;;;;11.10;7.03;;;16.90;99.90;;;;;;5073482;28;20115;-65
2022/09/14 07:15:56;;;;;;;13.90;7.60;;;16.90;99.90;;;;;;5072439;28;20111;-65
2022/09/14 07:18:31;;;;;;;15.23;7.40;;;16.90;99.90;;;;;;5065863;28;20036;-65
2022/09/14 07:21:05;;;;;;;11.52;7.65;;;16.80;99.90;;;;;;5072482;28;20029;-65
2022/09/14 07:23:31;;;;;;;12.50;7.33;;;16.70;99.90;;;;;;5073571;28;20025;-65
2022/09/14 07:26:24;;;;;;;14.82;8.23;;;16.70;99.90;;;;;;5072583;28;20407;-65
2022/09/14 07:28:53;;;;;;;12.20;8.20;;;16.70;99.90;;;;;;5071767;28;20108;-65
2022/09/14 07:31:28;;;;;;;10.13;6.88;;;16.70;99.90;;;;;;5048422;28;20402;-65
2022/09/14 07:33:56;;;;;;;10.07;6.50;;;16.70;99.90;;;;;;5054089;28;20430;-66
2022/09/14 07:36:24;;;;;;;10.68;6.32;;;16.60;99.90;;;;;;5052916;28;20055;-65
2022/09/14 07:38:50;;;;;;;10.65;7.10;;;16.60;99.90;;;;;;5054256;28;20115;-62
2022/09/14 07:41:15;;;;;;;12.07;6.95;;;16.60;99.90;;;;;;5054051;28;20097;-62
2022/09/14 07:43:41;;;;;;;12.20;7.03;;;16.60;99.90;;;;;;5053631;28;20534;-63
2022/09/14 07:46:07;;;;;;;12.20;7.75;;;16.70;99.90;;;;;;5052332;28;20025;-65
2022/09/14 07:48:34;;;;;;;11.73;6.88;;;16.70;99.90;;;;;;5052592;28;20092;-62
2022/09/14 07:51:06;;;;;;;10.77;6.80;;;16.70;99.90;;;;;;5053445;28;20124;-63
2022/09/14 07:53:34;;;;;;;14.20;7.43;;;16.70;99.90;;;;;;5059826;28;20077;-64
2022/09/14 07:56:00;;;;;;;15.10;7.75;;;16.70;99.90;;;;;;5058953;28;20723;-62
2022/09/14 07:58:27;;;;;;;13.02;7.60;;;16.80;99.90;;;;;;5054837;28;20045;-63
2022/09/14 08:00:58;;;;;;;12.20;7.82;;;16.80;99.90;;;;;;5052609;28;20032;-59
2022/09/14 08:03:24;;;;;;;12.57;8.45;;;16.90;99.90;;;;;;5058389;28;20029;-62
2022/09/14 08:05:56;;;;;;;12.93;7.85;;;16.90;99.90;;;;;;5054972;28;20036;-60
2022/09/14 08:08:23;;;;;;;13.20;7.72;;;16.80;99.90;;;;;;5068010;28;20017;-61
2022/09/14 08:10:48;;;;;;;12.85;7.75;;;16.80;99.90;;;;;;5062839;28;20033;-63
2022/09/14 08:13:14;;;;;;;13.90;8.15;;;16.80;99.90;;;;;;5053229;28;20039;-62
2022/09/14 08:15:39;;;;;;;11.20;8.00;;;16.90;99.90;;;;;;5051139;28;20033;-61
2022/09/14 08:18:05;;;;;;;12.80;9.27;;;16.80;99.90;;;;;;5069770;28;20024;-62
2022/09/14 08:20:30;;;;;;;16.05;10.60;;;16.90;99.90;;;;;;5072324;28;20074;-62
2022/09/14 08:22:58;;;;;;;18.45;10.57;;;16.80;99.90;;;;;;5054985;28;20059;-62
2022/09/14 08:25:23;;;;;;;15.85;10.43;;;16.90;99.90;;;;;;5051733;28;20064;-63
2022/09/14 08:27:49;;;;;;;16.17;11.10;;;16.90;99.90;;;;;;5057713;28;20053;-60
2022/09/14 08:30:14;;;;;;;14.30;9.80;;;16.90;99.90;;;;;;5050041;28;20037;-62
2022/09/14 08:32:40;;;;;;;18.33;10.60;;;16.90;99.90;;;;;;5051885;28;20021;-63
2022/09/14 08:35:07;;;;;;;17.05;11.13;;;17.00;99.90;;;;;;5051622;28;20031;-63
2022/09/14 08:37:32;;;;;;;17.10;11.10;;;17.00;99.90;;;;;;5051143;28;20048;-63
2022/09/14 08:39:58;;;;;;;16.42;11.20;;;17.00;99.90;;;;;;5052814;28;20060;-62
2022/09/14 08:42:24;;;;;;;16.75;11.18;;;17.00;99.90;;;;;;5051110;28;20051;-62
2022/09/14 08:45:01;;;;;;;18.77;12.00;;;17.00;99.90;;;;;;5050069;28;20033;-63
2022/09/14 08:47:33;;;;;;;21.98;11.85;;;17.00;99.90;;;;;;5051444;28;20025;-63
2022/09/14 08:50:19;;;;;;;20.50;12.25;;;17.00;99.90;;;;;;5053173;28;20646;-61
2022/09/14 08:52:53;;;;;;;16.33;11.27;;;17.00;99.90;;;;;;5055856;28;20722;-63
2022/09/14 08:55:34;;;;;;;18.45;11.77;;;17.00;99.90;;;;;;5048036;28;20554;-64
2022/09/14 08:58:24;;;;;;;19.42;13.02;;;17.00;99.90;;;;;;5047988;28;20124;-64
2022/09/14 09:01:01;;;;;;;21.60;13.27;;;17.00;99.90;;;;;;5045393;28;20059;-62
2022/09/14 09:03:32;;;;;;;21.40;13.18;;;17.00;99.90;;;;;;5053494;28;20029;-63
2022/09/14 09:06:14;;;;;;;21.27;13.85;;;16.90;99.90;;;;;;5047065;28;20036;-63
2022/09/14 09:09:01;;;;;;;19.52;14.07;;;16.90;99.90;;;;;;5048334;28;20028;-64
2022/09/14 09:11:39;;;;;;;20.13;12.23;;;16.90;99.90;;;;;;5042975;28;20033;-64
2022/09/14 09:14:22;;;;;;;23.30;12.73;;;16.90;99.90;;;;;;5051127;28;20029;-64
2022/09/14 09:16:51;;;;;;;24.33;13.55;;;16.90;99.90;;;;;;5051972;28;20028;-62
2022/09/14 09:19:25;;;;;;;20.13;13.35;;;16.90;99.90;;;;;;5060917;28;20052;-64
2022/09/14 09:21:51;;;;;;;22.92;15.38;;;16.80;99.90;;;;;;5049248;28;20033;-64
2022/09/14 09:24:29;;;;;;;31.98;17.45;;;16.90;99.90;;;;;;5048820;28;20052;-62
2022/09/14 09:26:54;;;;;;;40.03;19.38;;;17.00;99.90;;;;;;5042947;28;20037;-63
2022/09/14 09:29:20;;;;;;;38.83;20.58;;;17.00;99.90;;;;;;5047695;28;20067;-64
2022/09/14 09:31:53;;;;;;;35.95;21.65;;;17.00;99.90;;;;;;5058132;28;20036;-65
2022/09/14 09:34:30;;;;;;;38.90;21.70;;;17.00;99.90;;;;;;5055316;28;20024;-63
2022/09/14 09:36:55;;;;;;;41.35;22.83;;;17.00;99.90;;;;;;5047748;28;20127;-64
2022/09/14 09:39:23;;;;;;;41.22;22.05;;;17.10;99.90;;;;;;5048948;28;20509;-64
2022/09/14 09:41:57;;;;;;;42.58;22.83;;;17.00;99.90;;;;;;5052258;28;20150;-62
2022/09/14 09:44:23;;;;;;;40.90;22.25;;;17.10;99.90;;;;;;5041059;28;20033;-61
2022/09/14 09:46:57;;;;;;;39.17;23.35;;;17.10;99.90;;;;;;5045012;28;20418;-63
2022/09/14 09:49:43;;;;;;;;;;;17.10;99.90;;;;;;5041493;28;20057;-63
2022/09/14 09:52:13;;;;;;;42.00;23.45;;;17.10;99.90;;;;;;5046842;28;19979;-62
2022/09/14 09:54:41;;;;;;;44.03;23.67;;;17.10;99.90;;;;;;5042919;28;20037;-63
2022/09/14 09:57:26;;;;;;;41.90;22.60;;;17.10;99.90;;;;;;5050412;28;20040;-62
2022/09/14 10:00:28;;;;;;;44.17;22.85;;;17.20;99.90;;;;;;5044771;28;20037;-63
2022/09/14 10:02:54;;;;;;;44.10;23.98;;;17.20;99.90;;;;;;5051393;28;20033;-62
2022/09/14 10:05:27;;;;;;;46.80;27.48;;;17.20;99.90;;;;;;5047010;28;20035;-62
2022/09/14 10:08:01;;;;;;;46.25;25.45;;;17.20;99.90;;;;;;5046428;28;20029;-62
2022/09/14 10:10:38;;;;;;;44.75;25.27;;;17.20;99.90;;;;;;5047286;28;20033;-64
2022/09/14 10:13:09;;;;;;;45.20;24.88;;;17.30;99.90;;;;;;5048687;28;20116;-62
2022/09/14 10:15:35;;;;;;;49.90;24.60;;;17.30;99.90;;;;;;5047079;28;20059;-61
2022/09/14 10:18:01;;;;;;;39.00;22.88;;;17.30;99.90;;;;;;5048508;28;20063;-62
2022/09/14 10:20:26;;;;;;;48.28;26.23;;;17.30;99.90;;;;;;5046686;28;20032;-62
2022/09/14 10:22:52;;;;;;;46.65;27.08;;;17.30;99.90;;;;;;5048237;28;20033;-63
2022/09/14 10:25:18;;;;;;;45.33;26.40;;;17.30;99.90;;;;;;5049177;28;20086;-62
2022/09/14 10:27:48;;;;;;;49.13;25.92;;;17.20;99.90;;;;;;5067657;28;20037;-63
2022/09/14 10:30:18;;;;;;;43.80;27.30;;;17.10;99.90;;;;;;5067234;28;20036;-63
2022/09/14 10:33:05;;;;;;;43.50;25.60;;;17.20;99.90;;;;;;5067466;28;20584;-63
2022/09/14 10:35:42;;;;;;;42.78;24.45;;;17.10;99.90;;;;;;5066138;28;20029;-63
2022/09/14 10:38:19;;;;;;;44.53;24.42;;;17.10;99.90;;;;;;5067736;28;20109;-63
2022/09/14 10:40:47;;;;;;;37.70;21.38;;;17.10;99.90;;;;;;5065203;28;20494;-62
2022/09/14 10:43:21;;;;;;;35.67;21.35;;;17.00;99.90;;;;;;5066885;28;20086;-63
2022/09/14 10:45:51;;;;;;;41.00;22.30;;;17.10;99.90;;;;;;5050860;28;20029;-61
2022/09/14 10:48:35;;;;;;;37.47;19.63;;;17.10;99.90;;;;;;5051923;28;20423;-63
2022/09/14 10:51:12;;;;;;;32.53;20.10;;;17.10;99.90;;;;;;5051777;28;20091;-62
2022/09/14 10:54:29;;;;;;;34.15;18.98;;;17.00;99.90;;;;;;5055315;28;20025;-63
2022/09/14 10:57:11;;;;;;;38.25;18.90;;;17.10;99.90;;;;;;5027836;28;20061;-64
2022/09/14 10:59:40;;;;;;;27.88;17.65;;;17.10;99.90;;;;;;5041220;28;20040;-62
2022/09/14 11:02:30;;;;;;;25.08;16.60;;;17.10;99.90;;;;;;5044425;28;20017;-64
2022/09/14 11:05:17;;;;;;;23.38;14.18;;;17.10;99.90;;;;;;5046719;28;20074;-63
2022/09/14 11:08:18;;;;;;;25.35;12.75;;;17.10;99.90;;;;;;5055543;28;20055;-58
2022/09/14 11:11:04;;;;;;;15.88;10.63;;;16.90;99.90;;;;;;5048268;28;20032;-60
2022/09/14 11:13:41;;;;;;;18.08;10.45;;;17.00;99.90;;;;;;5070623;28;20024;-63
2022/09/14 11:16:43;;;;;;;17.20;11.32;;;16.90;99.90;;;;;;5069639;28;20038;-64
2022/09/14 11:19:19;;;;;;;21.42;11.65;;;17.00;99.90;;;;;;5070769;28;20726;-61
2022/09/14 11:22:04;;;;;;;22.73;11.38;;;16.90;99.90;;;;;;5066427;28;20105;-65
2022/09/14 11:25:04;;;;;;;18.98;12.15;;;17.00;99.90;;;;;;5069545;28;20527;-63
2022/09/14 11:27:38;;;;;;;18.23;11.25;;;16.90;99.90;;;;;;5070590;28;20028;-62
2022/09/14 11:30:30;;;;;;;17.98;11.52;;;16.90;99.90;;;;;;5070419;28;20044;-61
2022/09/14 11:33:06;;;;;;;22.83;12.95;;;16.90;99.90;;;;;;5060002;28;20547;-62
2022/09/14 11:35:31;;;;;;;18.60;11.73;;;16.90;99.90;;;;;;5067805;28;20060;-62
2022/09/14 11:38:13;;;;;;;18.90;13.77;;;16.90;99.90;;;;;;5048752;28;20465;-62
2022/09/14 11:40:56;;;;;;;22.58;14.27;;;17.00;99.90;;;;;;5041715;28;20029;-65
2022/09/14 11:43:33;;;;;;;22.23;16.23;;;17.10;99.90;;;;;;5050443;28;20115;-63
2022/09/14 11:46:04;;;;;;;24.00;16.55;;;17.30;99.90;;;;;;5045068;28;20037;-64
2022/09/14 11:48:38;;;;;;;31.13;17.92;;;17.40;99.90;;;;;;5049987;28;20092;-63
2022/09/14 11:51:14;;;;;;;24.47;17.57;;;17.30;99.90;;;;;;5053009;28;20021;-64
2022/09/14 11:53:43;;;;;;;28.73;18.17;;;17.40;99.90;;;;;;5049975;28;20060;-64
2022/09/14 11:56:27;;;;;;;24.80;17.63;;;17.50;99.90;;;;;;5051187;28;20468;-63
2022/09/14 11:58:56;;;;;;;30.60;18.10;;;17.40;99.90;;;;;;5053542;28;20028;-64
2022/09/14 12:01:31;;;;;;;28.25;17.88;;;17.30;99.90;;;;;;5048210;28;20090;-64
2022/09/14 12:03:58;;;;;;;26.45;17.05;;;17.30;99.90;;;;;;5050636;28;20033;-64
2022/09/14 12:06:30;;;;;;;32.03;19.35;;;17.20;99.90;;;;;;5053274;28;20060;-64
2022/09/14 12:09:16;;;;;;;28.38;19.90;;;17.30;99.90;;;;;;5052083;28;20025;-63
2022/09/14 12:11:43;;;;;;;31.88;19.63;;;17.40;99.90;;;;;;5043352;28;20192;-61
2022/09/14 12:14:35;;;;;;;31.95;20.63;;;17.50;99.90;;;;;;5055986;28;20035;-64
2022/09/14 12:17:05;;;;;;;40.55;22.08;;;17.60;99.90;;;;;;5046840;28;20051;-64
2022/09/14 12:19:33;;;;;;;31.40;19.92;;;17.60;99.90;;;;;;5053192;28;20028;-62
2022/09/14 12:22:18;;;;;;;26.30;18.83;;;17.70;99.90;;;;;;5049389;28;20688;-60
2022/09/14 12:24:43;;;;;;;30.80;18.60;;;17.70;99.90;;;;;;5049610;28;20028;-61
2022/09/14 12:27:21;;;;;;;28.55;20.55;;;17.60;99.90;;;;;;5054529;28;20067;-63
2022/09/14 12:29:46;;;;;;;26.45;19.00;;;17.60;99.90;;;;;;5050415;28;20052;-60
2022/09/14 12:32:39;;;;;;;29.83;18.17;;;17.60;99.90;;;;;;5047028;28;20094;-62
2022/09/14 12:35:37;;;;;;;26.55;17.95;;;17.50;99.90;;;;;;5046523;28;20053;-63
2022/09/14 12:38:41;;;;;;;28.08;19.67;;;17.50;99.90;;;;;;5057456;28;20371;-59
2022/09/14 12:41:09;;;;;;;32.38;18.42;;;17.50;99.90;;;;;;5060224;28;20017;-61
2022/09/14 12:43:35;;;;;;;28.58;18.35;;;17.40;99.90;;;;;;5051439;28;20041;-62
2022/09/14 12:46:19;;;;;;;29.95;18.30;;;17.40;99.90;;;;;;5051094;28;20043;-64
2022/09/14 12:48:48;;;;;;;;;;;17.40;99.90;;;;;;5056607;28;20025;-62